Time;durP1;ratioP1;P1;durP2;ratioP2;P2;SDS_P1;SDS_P2;PMS_P1;PMS_P2;Temp;Humidity;BMP_temperature;BMP_pressure;BME280_temperature;BME280_humidity;BME280_pressure;Samples;Min_cycle;Max_cycle;Signal;HPM_P1;HPM_P2
2022/05/27 00:02:30;;;;;;;7.15;2.58;;;;;;;-145.45;100.00;62759.84;5335483;27;20134;-80
2022/05/27 00:05:01;;;;;;;6.35;2.90;;;;;;;-145.45;100.00;62759.84;5332103;27;20027;-80
2022/05/27 00:07:33;;;;;;;6.90;2.55;;;;;;;-145.45;100.00;62759.84;5333606;27;20391;-81
2022/05/27 00:10:05;;;;;;;9.18;2.65;;;;;;;-145.45;100.00;62759.84;5338449;27;20031;-81
2022/05/27 00:12:37;;;;;;;8.07;2.97;;;;;;;-145.45;100.00;62759.84;5315791;27;20035;-81
2022/05/27 00:15:09;;;;;;;7.78;2.53;;;;;;;-145.45;100.00;62759.84;5314847;27;20429;-81
2022/05/27 00:17:40;;;;;;;7.10;2.92;;;;;;;-145.45;100.00;62759.84;5311743;27;20040;-81
2022/05/27 00:20:13;;;;;;;6.47;2.78;;;;;;;-145.45;100.00;62759.84;5313318;27;42328;-80
2022/05/27 00:22:44;;;;;;;7.88;2.90;;;;;;;-145.45;100.00;62759.84;5314989;27;20095;-81
2022/05/27 00:25:15;;;;;;;11.10;3.30;;;;;;;-145.45;100.00;62759.84;5293536;27;20077;-80
2022/05/27 00:27:46;;;;;;;9.23;3.17;;;;;;;-145.45;100.00;62759.84;5289907;27;20038;-81
2022/05/27 00:30:18;;;;;;;7.30;3.03;;;;;;;-145.45;100.00;62759.84;5291207;27;20025;-81
2022/05/27 00:32:49;;;;;;;10.00;3.33;;;;;;;-145.45;100.00;62759.84;5316738;27;20032;-81
2022/05/27 00:35:21;;;;;;;11.05;3.00;;;;;;;-145.45;100.00;62759.84;5314337;27;20052;-81
2022/05/27 00:37:52;;;;;;;7.95;2.50;;;;;;;-145.45;100.00;62759.84;5316915;27;20079;-81
2022/05/27 00:40:25;;;;;;;6.00;2.42;;;;;;;-145.45;100.00;62759.84;5316585;27;20435;-80
2022/05/27 00:42:57;;;;;;;7.55;3.00;;;;;;;-145.45;100.00;62759.84;5291291;27;20028;-81
2022/05/27 00:45:28;;;;;;;9.07;3.58;;;;;;;-145.45;100.00;62759.84;5316388;27;20021;-81
2022/05/27 00:48:01;;;;;;;7.22;2.80;;;;;;;-145.45;100.00;62759.84;5314601;27;20020;-80
2022/05/27 00:50:40;;;;;;;6.55;2.53;;;;;;;-145.45;100.00;62759.84;5318242;27;20031;-81
2022/05/27 00:53:19;;;;;;;5.70;2.22;;;;;;;-145.45;100.00;62759.84;5317384;27;20803;-80
2022/05/27 00:55:56;;;;;;;6.82;3.03;;;;;;;-145.45;100.00;62759.84;5316410;27;20020;-80
2022/05/27 00:58:38;;;;;;;11.93;3.83;;;;;;;-145.45;100.00;62759.84;5316045;27;21386;-80
2022/05/27 01:01:10;;;;;;;9.02;3.55;;;;;;;-145.45;100.00;62759.84;5320542;27;20035;-80
2022/05/27 01:03:43;;;;;;;6.75;2.80;;;;;;;-145.45;100.00;62759.84;5317755;27;20081;-80
2022/05/27 01:06:14;;;;;;;8.57;3.83;;;;;;;-145.45;100.00;62759.84;5313690;27;20039;-81
2022/05/27 01:08:46;;;;;;;11.85;4.82;;;;;;;-145.45;100.00;62759.84;5298515;27;20020;-81
2022/05/27 01:11:27;;;;;;;10.50;3.72;;;;;;;-145.45;100.00;62759.84;5315735;27;20040;-80
2022/05/27 01:14:22;;;;;;;10.88;3.92;;;;;;;-145.45;100.00;62759.84;5294703;28;20031;-81
2022/05/27 01:17:26;;;;;;;9.80;4.05;;;;;;;-145.45;100.00;62759.84;5323456;27;20035;-80
2022/05/27 01:20:19;;;;;;;10.48;4.22;;;;;;;-145.45;100.00;62759.84;5284167;27;20044;-81
2022/05/27 01:23:18;;;;;;;10.18;3.80;;;;;;;-145.45;100.00;62759.84;5317933;27;20434;-81
2022/05/27 01:26:14;;;;;;;11.80;4.55;;;;;;;-145.45;100.00;62759.84;5314321;27;20387;-81
2022/05/27 01:29:20;;;;;;;12.70;4.55;;;;;;;-145.45;100.00;62759.84;5315825;27;20082;-81
2022/05/27 01:32:00;;;;;;;11.43;4.60;;;;;;;-145.45;100.00;62759.84;5314976;27;20085;-81
2022/05/27 01:34:57;;;;;;;12.90;4.90;;;;;;;-145.45;100.00;62759.84;5320877;27;20028;-82
2022/05/27 01:37:39;;;;;;;10.90;5.22;;;;;;;-145.45;100.00;62759.84;5314428;27;20121;-82
2022/05/27 01:40:17;;;;;;;11.30;4.82;;;;;;;-145.45;100.00;62759.84;5315156;27;20056;-82
2022/05/27 01:43:04;;;;;;;8.52;4.78;;;;;;;-145.45;100.00;62759.84;5317887;27;20024;-82
2022/05/27 01:45:58;;;;;;;7.97;4.40;;;;;;;-145.45;100.00;62759.84;5296111;27;20552;-82
2022/05/27 01:48:38;;;;;;;15.65;5.80;;;;;;;-145.45;100.00;62759.84;5317152;27;20038;-83
2022/05/27 01:51:24;;;;;;;13.68;5.85;;;;;;;-145.45;100.00;62759.84;5319968;27;20020;-83
2022/05/27 01:54:23;;;;;;;11.60;6.13;;;;;;;-145.45;100.00;62759.84;5322776;27;20028;-83
2022/05/27 01:57:04;;;;;;;11.15;5.80;;;;;;;-145.45;100.00;62759.84;5298301;27;20020;-83
2022/05/27 02:00:07;;;;;;;15.35;6.75;;;;;;;-145.45;100.00;62759.84;5318188;27;20146;-83
2022/05/27 02:02:44;;;;;;;13.00;6.82;;;;;;;-145.45;100.00;62759.84;5298205;27;20396;-83
2022/05/27 02:05:22;;;;;;;15.13;6.90;;;;;;;-145.45;100.00;62759.84;5317610;27;20506;-83
2022/05/27 02:07:58;;;;;;;13.73;6.70;;;;;;;-145.45;100.00;62759.84;5299336;27;20036;-83
2022/05/27 02:10:36;;;;;;;13.25;7.13;;;;;;;-145.45;100.00;62759.84;5320767;27;20099;-83
2022/05/27 02:13:15;;;;;;;13.23;6.97;;;;;;;-145.45;100.00;62759.84;5300278;27;20431;-83
2022/05/27 02:15:49;;;;;;;13.90;8.20;;;;;;;-145.45;100.00;62759.84;5317460;27;20024;-83
2022/05/27 02:18:37;;;;;;;14.32;8.32;;;;;;;-145.45;100.00;62759.84;5316317;27;20032;-83
2022/05/27 02:21:16;;;;;;;16.67;8.65;;;;;;;-145.45;100.00;62759.84;5319790;27;20181;-83
2022/05/27 02:23:53;;;;;;;24.40;10.27;;;;;;;-145.45;100.00;62759.84;5319006;27;20040;-83
2022/05/27 02:26:30;;;;;;;14.80;8.10;;;;;;;-145.45;100.00;62759.84;5318669;27;41617;-83
2022/05/27 02:29:08;;;;;;;19.60;10.00;;;;;;;-145.45;100.00;62759.84;5296949;27;20078;-83
2022/05/27 02:31:46;;;;;;;20.25;10.32;;;;;;;-145.45;100.00;62759.84;5300282;27;20024;-82
2022/05/27 02:37:25;;;;;;;16.67;10.45;;;;;;;-145.45;100.00;62759.84;5320445;27;20127;-82
2022/05/27 02:39:59;;;;;;;19.15;11.00;;;;;;;-145.45;100.00;62759.84;5318256;27;20082;-82
2022/05/27 02:42:37;;;;;;;18.17;10.77;;;;;;;-145.45;100.00;62759.84;5319204;27;20073;-82
2022/05/27 02:45:19;;;;;;;20.30;12.57;;;;;;;-145.45;100.00;62759.84;5317751;27;20063;-83
2022/05/27 02:48:22;;;;;;;16.95;12.30;;;;;;;-145.45;100.00;62759.84;5315419;27;20394;-82
2022/05/27 02:51:06;;;;;;;22.85;13.80;;;;;;;-145.45;100.00;62759.84;5297570;27;20029;-83
2022/05/27 02:54:03;;;;;;;21.75;12.43;;;;;;;-145.45;100.00;62759.84;5300884;27;20138;-83
2022/05/27 02:56:43;;;;;;;22.65;13.65;;;;;;;-145.45;100.00;62759.84;5301074;27;20028;-82
2022/05/27 02:59:17;;;;;;;21.63;13.07;;;;;;;-145.45;100.00;62759.84;5317513;27;20111;-81
2022/05/27 03:01:51;;;;;;;20.73;13.27;;;;;;;-145.45;100.00;62759.84;5319292;27;20063;-82
2022/05/27 03:04:23;;;;;;;20.33;13.05;;;;;;;-145.45;100.00;62759.84;5317426;27;21721;-82
2022/05/27 03:07:06;;;;;;;16.15;13.43;;;;;;;-145.45;100.00;62759.84;5320069;27;20067;-81
2022/05/27 03:10:13;;;;;;;23.77;14.25;;;;;;;-145.45;100.00;62759.84;5316278;27;20036;-81
2022/05/27 03:13:02;;;;;;;25.85;15.35;;;;;;;-145.45;100.00;62759.84;5281466;27;20052;-82
2022/05/27 03:15:37;;;;;;;22.10;15.52;;;;;;;-145.45;100.00;62759.84;5317740;27;20031;-81
2022/05/27 03:18:42;;;;;;;18.98;14.90;;;;;;;-145.45;100.00;62759.84;5310467;27;41775;-81
2022/05/27 03:21:17;;;;;;;21.38;16.17;;;;;;;-145.45;100.00;62759.84;5315819;27;20495;-81
2022/05/27 03:24:05;;;;;;;22.35;16.98;;;;;;;-145.45;100.00;62759.84;5318251;27;20053;-81
2022/05/27 03:27:03;;;;;;;21.63;17.17;;;;;;;-145.45;100.00;62759.84;5314289;27;20158;-81
2022/05/27 03:29:49;;;;;;;22.63;18.17;;;;;;;-145.45;100.00;62759.84;5316067;27;20063;-81
2022/05/27 03:32:30;;;;;;;22.95;16.77;;;;;;;-145.45;100.00;62759.84;5318663;27;20044;-81
2022/05/27 03:35:26;;;;;;;23.10;18.25;;;;;;;-145.45;100.00;62759.84;5319637;27;20039;-81
2022/05/27 03:38:01;;;;;;;23.75;19.13;;;;;;;-145.45;100.00;62759.84;5314785;27;20288;-80
2022/05/27 03:41:01;;;;;;;29.23;19.77;;;;;;;-145.45;100.00;62759.84;5316313;27;37838;-82
2022/05/27 03:43:35;;;;;;;29.42;21.33;;;;;;;-145.45;100.00;62759.84;5280272;27;20040;-81
2022/05/27 03:46:08;;;;;;;27.50;19.42;;;;;;;-145.45;100.00;62759.84;5318025;27;20402;-81
2022/05/27 03:48:39;;;;;;;25.92;20.20;;;;;;;-145.45;100.00;62759.84;5316653;27;20025;-81
2022/05/27 03:51:25;;;;;;;20.50;16.75;;;;;;;-145.45;100.00;62759.84;5305301;27;20822;-81
2022/05/27 03:54:03;;;;;;;30.33;20.55;;;;;;;-145.45;100.00;62759.84;5315178;27;20142;-82
2022/05/27 03:56:37;;;;;;;16.33;14.20;;;;;;;-145.45;100.00;62759.84;5316679;27;20020;-81
2022/05/27 03:59:12;;;;;;;9.38;8.18;;;;;;;-145.45;100.00;62759.84;5318004;27;20032;-81
2022/05/27 04:01:47;;;;;;;9.77;7.55;;;;;;;-145.45;100.00;62759.84;5298469;27;20037;-81
2022/05/27 04:04:26;;;;;;;11.55;6.97;;;;;;;-145.45;100.00;62759.84;5317634;27;20035;-81
2022/05/27 04:06:57;;;;;;;8.90;6.78;;;;;;;-145.45;100.00;62759.84;5299890;27;20029;-81
2022/05/27 04:09:29;;;;;;;7.20;5.70;;;;;;;-145.45;100.00;62759.84;5296492;27;20396;-81
2022/05/27 04:12:00;;;;;;;9.45;5.50;;;;;;;-145.45;100.00;62759.84;5318748;27;20039;-81
2022/05/27 04:14:32;;;;;;;8.43;5.63;;;;;;;-145.45;100.00;62759.84;5295626;27;20028;-81
2022/05/27 04:19:54;;;;;;;10.43;6.28;;;;;;;-145.45;100.00;62759.84;5317071;27;20119;-81
2022/05/27 04:22:26;;;;;;;12.98;7.53;;;;;;;-145.45;100.00;62759.84;5314972;27;20066;-81
2022/05/27 04:24:58;;;;;;;12.10;10.75;;;;;;;-145.45;100.00;62759.84;5316926;27;20094;-81
2022/05/27 04:27:30;;;;;;;18.10;12.35;;;;;;;-145.45;100.00;62759.84;5319889;27;20429;-81
2022/05/27 04:30:05;;;;;;;18.70;14.23;;;;;;;-145.45;100.00;62759.84;5317089;27;20046;-81
2022/05/27 04:32:38;;;;;;;24.27;13.98;;;;;;;-145.45;100.00;62759.84;5318226;27;20032;-80
2022/05/27 04:35:09;;;;;;;20.35;13.95;;;;;;;-145.45;100.00;62759.84;5316875;27;20123;-80
2022/05/27 04:37:40;;;;;;;18.58;13.55;;;;;;;-145.45;100.00;62759.84;5298110;27;20033;-81
2022/05/27 04:40:12;;;;;;;17.83;14.18;;;;;;;-145.45;100.00;62759.84;5297403;28;20036;-81
2022/05/27 04:42:44;;;;;;;21.00;13.00;;;;;;;-145.45;100.00;62759.84;5316496;27;20134;-81
2022/05/27 04:45:15;;;;;;;22.52;15.65;;;;;;;-145.45;100.00;62759.84;5314547;27;20096;-80
2022/05/27 04:47:47;;;;;;;25.63;17.02;;;;;;;-145.45;100.00;62759.84;5317478;27;20031;-80
2022/05/27 04:50:19;;;;;;;24.15;16.05;;;;;;;-145.45;100.00;62759.84;5319706;27;20473;-81
2022/05/27 04:52:50;;;;;;;26.60;16.30;;;;;;;-145.45;100.00;62759.84;5318395;27;20028;-81
2022/05/27 04:55:22;;;;;;;22.50;16.40;;;;;;;-145.45;100.00;62759.84;5316558;27;20434;-80
2022/05/27 04:57:55;;;;;;;25.75;16.20;;;;;;;-145.45;100.00;62759.84;5317765;27;20035;-80
2022/05/27 05:00:29;;;;;;;26.30;15.75;;;;;;;-145.45;100.00;62759.84;5318814;27;31303;-80
2022/05/27 05:03:01;;;;;;;29.17;16.60;;;;;;;-145.45;100.00;62759.84;5298221;27;20023;-80
2022/05/27 05:05:34;;;;;;;23.73;16.25;;;;;;;-145.45;100.00;62759.84;5318316;27;20389;-80
2022/05/27 05:08:17;;;;;;;27.85;15.25;;;;;;;-145.45;100.00;62759.84;5317884;27;20035;-81
2022/05/27 05:10:48;;;;;;;30.33;16.77;;;;;;;-145.45;100.00;62759.84;5317293;27;20135;-81
2022/05/27 05:13:19;;;;;;;29.80;16.63;;;;;;;-145.45;100.00;62759.84;5294690;27;20426;-81
2022/05/27 05:15:51;;;;;;;23.58;15.75;;;;;;;-145.45;100.00;62759.84;5316382;27;20495;-80
2022/05/27 05:18:22;;;;;;;30.55;16.85;;;;;;;-145.45;100.00;62759.84;5298008;27;20028;-80
2022/05/27 05:20:54;;;;;;;31.85;17.35;;;;;;;-145.45;100.00;62759.84;5323471;27;20086;-80
2022/05/27 05:23:25;;;;;;;24.20;14.50;;;;;;;-145.45;100.00;62759.84;5320521;27;20031;-80
2022/05/27 05:25:56;;;;;;;25.63;14.30;;;;;;;-145.45;100.00;62759.84;5322957;27;20036;-80
2022/05/27 05:28:27;;;;;;;28.60;13.95;;;;;;;-145.45;100.00;62759.84;5319967;27;20128;-80
2022/05/27 05:30:59;;;;;;;22.38;12.70;;;;;;;-145.45;100.00;62759.84;5320378;27;20077;-80
2022/05/27 05:33:30;;;;;;;25.85;12.73;;;;;;;-145.45;100.00;62759.84;5318839;27;20039;-81
2022/05/27 05:36:01;;;;;;;18.05;10.60;;;;;;;-145.45;100.00;62759.84;5323095;27;20028;-80
2022/05/27 05:38:33;;;;;;;20.63;11.80;;;;;;;-145.45;100.00;62759.84;5321841;27;20032;-81
2022/05/27 05:41:05;;;;;;;20.30;11.15;;;;;;;-145.45;100.00;62759.84;5322193;27;27855;-81
2022/05/27 05:43:37;;;;;;;22.67;11.68;;;;;;;-145.45;100.00;62759.84;5320819;27;20270;-81
2022/05/27 05:46:08;;;;;;;22.00;10.48;;;;;;;-145.45;100.00;62759.84;5323383;27;20694;-81
2022/05/27 05:48:42;;;;;;;21.33;9.65;;;;;;;-145.45;100.00;62759.84;5321202;27;20032;-81
2022/05/27 05:51:13;;;;;;;16.42;8.40;;;;;;;-145.45;100.00;62759.84;5299585;27;20521;-81
2022/05/27 05:53:47;;;;;;;20.88;9.32;;;;;;;-145.45;100.00;62759.84;5321135;27;20036;-81
2022/05/27 05:56:18;;;;;;;18.23;7.80;;;;;;;-145.45;100.00;62759.84;5321552;27;20035;-80
2022/05/27 05:58:51;;;;;;;16.63;7.07;;;;;;;-145.45;100.00;62759.84;5296158;27;40744;-81
2022/05/27 06:01:24;;;;;;;16.95;6.75;;;;;;;-145.45;100.00;62759.84;5316237;27;20043;-81
2022/05/27 06:03:58;;;;;;;15.93;7.40;;;;;;;-145.45;100.00;62759.84;5295847;27;20523;-81
2022/05/27 06:06:30;;;;;;;12.00;5.07;;;;;;;-145.45;100.00;62759.84;5313040;27;20029;-81
2022/05/27 06:09:05;;;;;;;15.50;6.60;;;;;;;-145.45;100.00;62759.84;5319296;27;20027;-81
2022/05/27 06:11:42;;;;;;;14.00;5.53;;;;;;;-145.45;100.00;62759.84;5320136;27;20059;-81
2022/05/27 06:14:14;;;;;;;12.32;4.88;;;;;;;-145.45;100.00;62759.84;5303852;27;20031;-81
2022/05/27 06:16:45;;;;;;;13.65;4.50;;;;;;;-145.45;100.00;62759.84;5318360;27;20035;-81
2022/05/27 06:19:17;;;;;;;12.00;4.45;;;;;;;-145.45;100.00;62759.84;5317077;27;20032;-81
2022/05/27 06:21:51;;;;;;;10.43;4.30;;;;;;;-145.45;100.00;62759.84;5318169;27;20033;-81
2022/05/27 06:24:22;;;;;;;9.38;3.97;;;;;;;-145.45;100.00;62759.84;5316274;27;20038;-81
2022/05/27 06:26:54;;;;;;;9.43;3.40;;;;;;;-145.45;100.00;62759.84;5317683;27;20480;-81
2022/05/27 06:35:11;;;;;;;6.20;2.90;;;;;;;-145.45;100.00;62759.84;5317732;27;20040;-81
2022/05/27 06:37:42;;;;;;;7.85;3.03;;;;;;;-145.45;100.00;62759.84;5295693;28;20031;-81
2022/05/27 06:40:14;;;;;;;12.13;3.22;;;;;;;-145.45;100.00;62759.84;5294991;28;20396;-81
2022/05/27 06:42:46;;;;;;;8.35;2.85;;;;;;;-145.45;100.00;62759.84;5313118;28;20464;-81
2022/05/27 06:45:27;;;;;;;11.25;3.17;;;;;;;-145.45;100.00;62759.84;5297038;27;20032;-81
2022/05/27 06:48:07;;;;;;;7.32;2.53;;;;;;;-145.45;100.00;62759.84;5297963;28;20028;-81
2022/05/27 06:50:48;;;;;;;9.02;2.78;;;;;;;-145.45;100.00;62759.84;5296432;27;20031;-81
2022/05/27 06:53:22;;;;;;;8.95;2.75;;;;;;;-145.45;100.00;62759.84;5319999;27;20050;-81
2022/05/27 06:55:54;;;;;;;8.05;2.50;;;;;;;-145.45;100.00;62759.84;5294832;27;20092;-82
2022/05/27 06:58:26;;;;;;;6.10;1.80;;;;;;;-145.45;100.00;62759.84;5320813;27;20016;-81
2022/05/27 07:00:57;;;;;;;8.13;2.00;;;;;;;-145.45;100.00;62759.84;5312954;27;20051;-81
2022/05/27 07:03:29;;;;;;;6.22;2.05;;;;;;;-145.45;100.00;62759.84;5317282;27;20174;-81
2022/05/27 07:06:00;;;;;;;8.60;3.03;;;;;;;-145.45;100.00;62759.84;5298817;27;20059;-81
2022/05/27 07:08:32;;;;;;;8.93;2.50;;;;;;;-145.45;100.00;62759.84;5295948;27;20036;-81
2022/05/27 07:11:04;;;;;;;7.70;2.35;;;;;;;-145.45;100.00;62759.84;5317215;27;20094;-81
2022/05/27 07:13:35;;;;;;;6.63;2.70;;;;;;;-145.45;100.00;62759.84;5296258;27;20438;-82
2022/05/27 07:16:06;;;;;;;8.88;2.63;;;;;;;-145.45;100.00;62759.84;5319889;27;20051;-85
2022/05/27 07:18:38;;;;;;;6.97;2.30;;;;;;;-145.45;100.00;62759.84;5317116;27;20020;-84
2022/05/27 07:21:09;;;;;;;6.70;2.17;;;;;;;-145.45;100.00;62759.84;5298343;27;20480;-84
2022/05/27 07:23:40;;;;;;;9.40;2.75;;;;;;;-145.45;100.00;62759.84;5316488;27;20115;-84
2022/05/27 07:26:15;;;;;;;5.75;2.10;;;;;;;-145.45;100.00;62759.84;5297635;27;20114;-85
2022/05/27 07:28:48;;;;;;;6.60;2.53;;;;;;;-145.45;100.00;62759.84;5317557;27;20141;-85
2022/05/27 07:31:19;;;;;;;7.22;2.10;;;;;;;-145.45;100.00;62759.84;5317182;27;20103;-84
2022/05/27 07:33:51;;;;;;;8.13;2.20;;;;;;;-145.45;100.00;62759.84;5318725;27;20172;-85
2022/05/27 07:36:23;;;;;;;8.38;2.45;;;;;;;-145.45;100.00;62759.84;5300141;27;20395;-84
2022/05/27 07:38:55;;;;;;;6.63;2.20;;;;;;;-145.45;100.00;62759.84;5317693;27;20460;-84
2022/05/27 07:41:27;;;;;;;8.43;2.13;;;;;;;-145.45;100.00;62759.84;5301904;27;20108;-84
2022/05/27 07:44:01;;;;;;;8.77;3.10;;;;;;;-145.45;100.00;62759.84;5301229;27;20020;-85
2022/05/27 07:46:35;;;;;;;9.40;2.70;;;;;;;-145.45;100.00;62759.84;5298998;27;20024;-84
2022/05/27 07:49:07;;;;;;;6.72;2.03;;;;;;;-145.45;100.00;62759.84;5319367;27;20099;-84
2022/05/27 07:51:41;;;;;;;8.93;2.42;;;;;;;-145.45;100.00;62759.84;5316100;27;20024;-84
2022/05/27 07:54:13;;;;;;;10.30;2.50;;;;;;;-145.45;100.00;62759.84;5323100;27;20055;-84
2022/05/27 07:56:44;;;;;;;5.63;2.40;;;;;;;-145.45;100.00;62759.84;5328514;28;20432;-84
2022/05/27 07:59:15;;;;;;;9.57;2.55;;;;;;;-145.45;100.00;62759.84;5328184;28;20043;-84
2022/05/27 08:01:47;;;;;;;7.45;2.35;;;;;;;-145.45;100.00;62759.84;5310320;28;20028;-85
2022/05/27 08:04:18;;;;;;;7.38;2.60;;;;;;;-145.45;100.00;62759.84;5328273;28;20091;-84
2022/05/27 08:06:53;;;;;;;6.07;2.00;;;;;;;-145.45;100.00;62759.84;5309701;28;20044;-85
2022/05/27 08:09:24;;;;;;;6.10;2.85;;;;;;;-145.45;100.00;62759.84;5309131;28;20016;-84
2022/05/27 08:11:55;;;;;;;6.63;2.70;;;;;;;-145.45;100.00;62759.84;5328019;27;20394;-84
2022/05/27 08:14:27;;;;;;;10.38;2.78;;;;;;;-145.45;100.00;62759.84;5292777;28;20027;-84
2022/05/27 08:17:07;;;;;;;9.13;2.47;;;;;;;-145.45;100.00;62759.84;5309747;28;20449;-85
2022/05/27 08:19:38;;;;;;;7.10;2.30;;;;;;;-145.45;100.00;62759.84;5327717;28;20046;-84
2022/05/27 08:22:10;;;;;;;9.40;2.17;;;;;;;-145.45;100.00;62759.84;5328710;28;20039;-84
2022/05/27 08:24:41;;;;;;;8.02;2.33;;;;;;;-145.45;100.00;62759.84;5309581;28;20024;-84
2022/05/27 08:27:13;;;;;;;8.07;2.08;;;;;;;-145.45;100.00;62759.84;5328157;28;20016;-84
2022/05/27 08:29:44;;;;;;;6.20;2.17;;;;;;;-145.45;100.00;62759.84;5327690;28;20023;-84
2022/05/27 08:32:16;;;;;;;4.82;2.20;;;;;;;-145.45;100.00;62759.84;5309399;28;20020;-85
2022/05/27 08:40:30;;;;;;;5.40;2.22;;;;;;;-145.45;100.00;62759.84;5329805;28;20123;-85
2022/05/27 08:43:18;;;;;;;8.23;2.58;;;;;;;-145.45;100.00;62759.84;5323831;28;20008;-84
2022/05/27 08:46:01;;;;;;;7.85;2.65;;;;;;;-145.45;100.00;62759.84;5329696;28;20028;-84
2022/05/27 08:48:38;;;;;;;6.78;2.30;;;;;;;-145.45;100.00;62759.84;5309229;28;20056;-85
2022/05/27 08:51:18;;;;;;;8.30;2.28;;;;;;;-145.45;100.00;62759.84;5328265;28;20028;-84
2022/05/27 08:53:57;;;;;;;5.70;2.38;;;;;;;-145.45;100.00;62759.84;5310353;28;20103;-84
2022/05/27 08:59:41;;;;;;;9.77;2.50;;;;;;;-145.45;100.00;62759.84;5327462;28;20032;-84
2022/05/27 09:02:27;;;;;;;10.00;2.22;;;;;;;-145.45;100.00;62759.84;5309226;28;20047;-84
2022/05/27 09:05:21;;;;;;;;;;;;;;;-145.45;100.00;62759.84;5327654;27;20495;-85
2022/05/27 09:07:58;;;;;;;5.18;2.00;;;;;;;-145.45;100.00;62759.84;5308126;28;20051;-85
2022/05/27 09:10:51;;;;;;;6.20;1.80;;;;;;;-145.45;100.00;62759.84;5298643;28;20116;-85
2022/05/27 09:13:34;;;;;;;10.20;2.30;;;;;;;-145.45;100.00;62759.84;5286728;28;20036;-85
2022/05/27 09:16:24;;;;;;;5.50;2.03;;;;;;;-145.45;100.00;62759.84;5305810;28;20063;-85
2022/05/27 09:19:11;;;;;;;6.22;2.22;;;;;;;-145.45;100.00;62759.84;5286762;28;20032;-85
2022/05/27 09:21:57;;;;;;;7.22;2.10;;;;;;;-145.45;100.00;62759.84;5286672;28;20348;-85
2022/05/27 09:24:54;;;;;;;7.20;2.13;;;;;;;-145.45;100.00;62759.84;5290369;28;20025;-85
2022/05/27 09:27:57;;;;;;;6.60;2.33;;;;;;;-145.45;100.00;62759.84;5286891;28;20063;-85
2022/05/27 09:30:32;;;;;;;7.75;2.63;;;;;;;-145.45;100.00;62759.84;5305055;28;20036;-85
2022/05/27 09:33:09;;;;;;;6.13;2.30;;;;;;;-145.45;100.00;62759.84;5305545;28;20096;-85
2022/05/27 09:35:58;;;;;;;8.30;2.85;;;;;;;-145.45;100.00;62759.84;5287201;28;20436;-85
2022/05/27 09:38:34;;;;;;;8.48;2.08;;;;;;;-145.45;100.00;62759.84;5305205;28;20032;-86
2022/05/27 09:41:11;;;;;;;;;;;;;;;-145.45;100.00;62759.84;5287293;28;20043;-83
2022/05/27 09:43:49;;;;;;;7.95;2.13;;;;;;;-145.45;100.00;62759.84;5285780;28;19914;-83
2022/05/27 09:46:27;;;;;;;8.73;2.22;;;;;;;-145.45;100.00;62759.84;5286761;28;20495;-84
2022/05/27 09:48:59;;;;;;;8.05;2.47;;;;;;;-145.45;100.00;62759.84;5286737;28;20093;-84
2022/05/27 09:51:32;;;;;;;12.25;2.15;;;;;;;-145.45;100.00;62759.84;5287011;28;20048;-84
2022/05/27 09:54:21;;;;;;;10.02;2.60;;;;;;;-145.45;100.00;62759.84;5286538;28;20028;-84
2022/05/27 09:57:10;;;;;;;9.27;2.63;;;;;;;-145.45;100.00;62759.84;5304443;28;20494;-84
2022/05/27 09:59:48;;;;;;;7.13;2.00;;;;;;;-145.45;100.00;62759.84;5303369;28;20576;-85
2022/05/27 10:02:26;;;;;;;9.93;2.10;;;;;;;-145.45;100.00;62759.84;5286456;28;20017;-85
2022/05/27 10:05:06;;;;;;;8.45;2.20;;;;;;;-145.45;100.00;62759.84;5286088;28;20439;-84
2022/05/27 10:07:52;;;;;;;10.98;2.30;;;;;;;-145.45;100.00;62759.84;5304609;28;20396;-84
2022/05/27 10:10:28;;;;;;;6.50;2.42;;;;;;;-145.45;100.00;62759.84;5286160;28;20330;-85
2022/05/27 10:13:30;;;;;;;11.32;2.47;;;;;;;-145.45;100.00;62759.84;5304143;28;20514;-84
2022/05/27 10:16:11;;;;;;;6.55;2.35;;;;;;;-145.45;100.00;62759.84;5285332;28;20024;-84
2022/05/27 10:18:44;;;;;;;9.73;2.60;;;;;;;-145.45;100.00;62759.84;5285548;28;20025;-85
2022/05/27 10:21:20;;;;;;;7.72;2.45;;;;;;;-145.45;100.00;62759.84;5269734;28;20033;-84
2022/05/27 10:23:55;;;;;;;13.95;3.00;;;;;;;-145.45;100.00;62759.84;5306787;28;20112;-84
2022/05/27 10:26:32;;;;;;;7.63;2.53;;;;;;;-145.45;100.00;62759.84;5307180;28;20024;-84
2022/05/27 10:29:10;;;;;;;10.18;2.42;;;;;;;-145.45;100.00;62759.84;5325163;28;20024;-84
2022/05/27 10:31:56;;;;;;;12.23;2.75;;;;;;;-145.45;100.00;62759.84;5325146;28;20024;-84
2022/05/27 10:34:45;;;;;;;8.07;2.72;;;;;;;-145.45;100.00;62759.84;5306893;28;20028;-84
2022/05/27 10:37:33;;;;;;;7.35;2.50;;;;;;;-145.45;100.00;62759.84;5313444;28;20073;-84
2022/05/27 10:40:31;;;;;;;10.98;2.63;;;;;;;-145.45;100.00;62759.84;5295575;28;20037;-85
2022/05/27 10:43:09;;;;;;;12.18;2.80;;;;;;;-145.45;100.00;62759.84;5303885;28;20024;-85
2022/05/27 10:45:47;;;;;;;16.33;2.60;;;;;;;-145.45;100.00;62759.84;5314971;28;20028;-85
2022/05/27 10:48:37;;;;;;;19.42;3.42;;;;;;;-145.45;100.00;62759.84;5315107;28;20024;-85
2022/05/27 10:51:11;;;;;;;12.02;2.75;;;;;;;-145.45;100.00;62759.84;5310975;28;20035;-85
2022/05/27 10:54:01;;;;;;;9.55;2.30;;;;;;;-145.45;100.00;62759.84;5295522;28;20028;-86
2022/05/27 11:03:32;;;;;;;12.07;2.80;;;;;;;-145.45;100.00;62759.84;5318269;28;20049;-86
2022/05/27 11:06:27;;;;;;;10.60;2.42;;;;;;;-145.45;100.00;62759.84;5301679;28;20036;-86
2022/05/27 11:09:15;;;;;;;7.05;1.92;;;;;;;-145.45;100.00;62759.84;5287220;28;20025;-86
2022/05/27 11:12:21;;;;;;;10.68;2.40;;;;;;;-145.45;100.00;62759.84;5316221;27;20044;-85
2022/05/27 11:15:29;;;;;;;8.27;2.75;;;;;;;-145.45;100.00;62759.84;5325301;28;20365;-86
2022/05/27 11:18:06;;;;;;;7.72;2.42;;;;;;;-145.45;100.00;62759.84;5323883;27;20020;-86
2022/05/27 11:21:01;;;;;;;12.75;2.80;;;;;;;-145.45;100.00;62759.84;5326109;27;20040;-85
2022/05/27 11:23:48;;;;;;;9.27;2.90;;;;;;;-145.45;100.00;62759.84;5326955;27;20523;-86
2022/05/27 11:26:47;;;;;;;10.88;2.58;;;;;;;-145.45;100.00;62759.84;5326318;27;20020;-85
2022/05/27 11:29:37;;;;;;;10.52;2.08;;;;;;;-145.45;100.00;62759.84;5328593;28;20032;-87
2022/05/27 11:32:31;;;;;;;8.98;2.08;;;;;;;-145.45;100.00;62759.84;5325161;28;20476;-86
2022/05/27 11:35:13;;;;;;;7.30;3.08;;;;;;;-145.45;100.00;62759.84;5324218;27;20550;-86
2022/05/27 11:38:02;;;;;;;9.35;2.83;;;;;;;-145.45;100.00;62759.84;5324956;27;20093;-86
2022/05/27 11:41:03;;;;;;;11.68;2.75;;;;;;;-145.45;100.00;62759.84;5325157;28;20038;-85
2022/05/27 11:43:48;;;;;;;9.77;2.53;;;;;;;-145.45;100.00;62759.84;5322687;27;20483;-86
2022/05/27 11:46:49;;;;;;;9.32;3.05;;;;;;;-145.45;100.00;62759.84;5323192;27;20052;-86
2022/05/27 11:49:28;;;;;;;9.35;2.80;;;;;;;-145.45;100.00;62759.84;5322723;27;20035;-86
2022/05/27 11:52:16;;;;;;;7.68;2.55;;;;;;;-145.45;100.00;62759.84;5324493;27;20024;-86
2022/05/27 11:54:47;;;;;;;11.18;2.58;;;;;;;-145.45;100.00;62759.84;5322629;27;20590;-86
2022/05/27 11:57:19;;;;;;;10.68;2.53;;;;;;;-145.45;100.00;62759.84;5322912;28;20051;-86
2022/05/27 12:00:05;;;;;;;7.78;2.58;;;;;;;-145.45;100.00;62759.84;5322437;27;20052;-86
2022/05/27 12:02:49;;;;;;;7.65;2.35;;;;;;;-145.45;100.00;62759.84;5322095;28;20394;-86
2022/05/27 12:05:28;;;;;;;7.45;2.53;;;;;;;-145.45;100.00;62759.84;5322626;27;20032;-85
2022/05/27 12:08:06;;;;;;;6.40;2.38;;;;;;;-145.45;100.00;62759.84;5322861;28;20047;-85
2022/05/27 12:10:49;;;;;;;9.68;3.00;;;;;;;-145.45;100.00;62759.84;5318395;27;20036;-86
2022/05/27 12:13:45;;;;;;;9.77;2.42;;;;;;;-145.45;100.00;62759.84;5283738;28;20012;-85
2022/05/27 12:16:31;;;;;;;9.30;2.30;;;;;;;-145.45;100.00;62759.84;5284061;28;20028;-85
2022/05/27 12:19:16;;;;;;;10.05;2.35;;;;;;;-145.45;100.00;62759.84;5300692;28;20065;-85
2022/05/27 12:21:52;;;;;;;9.10;2.88;;;;;;;-145.45;100.00;62759.84;5283998;28;20067;-86
2022/05/27 12:24:31;;;;;;;5.72;2.13;;;;;;;-145.45;100.00;62759.84;5309623;28;20016;-85